Quick Links (Output Below):   Max & Min Temps   /   Climate Reports   /   Zone Forecasts
River Forecasts   /   Forestry Forecasts   /   Aviation Forecasts   /   Radars   /   Features

Terminal Aerodrome Forecast (Harrison)

Pick a Site:
Arkadelphia | El Dorado | Fayetteville | Fort Smith | Harrison | Highfill | Hot Springs | Jonesboro
Little Rock | Monticello | Mountain Home | Pine Bluff | Texarkana
 Forecast 

KHRO 241720Z 2418/2518 20010G20KT P6SM VCTS SCT025CB OVC080
      TEMPO 2419/2423 5SM TSRA BR BKN025CB
     FM250000 29012G20KT P6SM SCT020 BKN050
     FM250500 27004KT P6SM SKC
      TEMPO 2508/2512 5SM BR=


 Latest METARs (Observations) 
How to Decode METARs
17Z KHRO 241653Z AUTO 18009KT 10SM SCT110 18/13 A2973 RMK AO2 PK WND
         17032/1622 RAE31 SLP058 P0001 T01780133
         
16Z KHRO 241553Z AUTO 20013G19KT 10SM -RA OVC110 19/12 A2982 RMK AO2
         RAB37 SLP088 P0000 T01940122
         
15Z KHRO 241453Z AUTO 19007KT 10SM FEW095 BKN120 20/11 A2982 RMK AO2
         SLP088 60000 T02000106 53029
         
14Z KHRO 241353Z AUTO 21010G19KT 190V250 10SM FEW042 20/11 A2980 RMK
         AO2 SLP079 T02000111
         
13Z KHRO 241253Z AUTO 17012KT 10SM CLR 18/08 A2973 RMK AO2 PK WND
         14043/1214 RAB08E26 SLP058 P0000 T01780078
         
12Z KHRO 241153Z AUTO 15022G30KT 10SM CLR 17/05 A2973 RMK AO2 PK WND
         16030/1147 SLP056 T01720050 10172 20133 58037
         
11Z KHRO 241053Z AUTO 12006KT 10SM CLR 14/06 A2981 RMK AO2 SLP084
         T01390056
         
10Z KHRO 240953Z AUTO 13011KT 10SM CLR 14/06 A2983 RMK AO2 SLP088
         T01440056
         
09Z KHRO 240853Z AUTO 13009KT 10SM CLR 14/06 A2984 RMK AO2 SLP094
         T01390056 57013
         
08Z KHRO 240753Z AUTO 13008KT 10SM CLR 14/06 A2986 RMK AO2 SLP100
         T01390061
         
***** Today's Observations (Above) *****


Back to Main Page
http://www.srh.noaa.gov/lzk/qfcst.php

USA.gov is the U.S. government's official web portal to all federal, state and local government web resources and services.